Time;durP1;ratioP1;P1;durP2;ratioP2;P2;SDS_P1;SDS_P2;PMS_P1;PMS_P2;Temp;Humidity;BMP_temperature;BMP_pressure;BME280_temperature;BME280_humidity;BME280_pressure;Samples;Min_cycle;Max_cycle;Signal;HPM_P1;HPM_P2
2024/02/20 00:01:58;;;;;;;4.20;2.90;;;;;;;;;;137666;1273;22753;-81
2024/02/20 00:05:00;;;;;;;5.50;3.30;;;;;;;;;;137697;1273;22084;-81
2024/02/20 00:08:03;;;;;;;4.30;3.20;;;;;;;;;;137678;1273;22262;-82
2024/02/20 00:11:05;;;;;;;4.60;3.60;;;;;;;;;;137717;1273;22116;-82
2024/02/20 00:14:09;;;;;;;6.00;4.20;;;;;;;;;;137708;1273;22070;-81
2024/02/20 00:17:11;;;;;;;4.70;3.80;;;;;;;;;;137688;1273;22091;-81
2024/02/20 00:20:14;;;;;;;6.20;4.80;;;;;;;;;;137712;1273;22073;-81
2024/02/20 00:23:17;;;;;;;6.60;4.60;;;;;;;;;;137685;1273;22343;-80
2024/02/20 00:26:19;;;;;;;5.70;4.20;;;;;;;;;;137708;1273;22069;-82
2024/02/20 00:29:22;;;;;;;4.20;3.80;;;;;;;;;;137693;1273;22192;-82
2024/02/20 00:32:24;;;;;;;5.10;4.00;;;;;;;;;;137743;1262;22144;-82
2024/02/20 00:35:27;;;;;;;5.00;3.40;;;;;;;;;;137740;1273;22115;-82
2024/02/20 00:38:30;;;;;;;5.40;3.80;;;;;;;;;;137731;1273;22192;-82
2024/02/20 00:41:32;;;;;;;5.40;4.10;;;;;;;;;;137667;1273;22077;-82
2024/02/20 00:44:35;;;;;;;4.50;3.80;;;;;;;;;;137677;1273;22493;-81
2024/02/20 00:47:38;;;;;;;6.80;3.50;;;;;;;;;;137701;1273;22395;-81
2024/02/20 00:50:41;;;;;;;7.30;4.10;;;;;;;;;;137701;1273;22301;-82
2024/02/20 00:53:43;;;;;;;5.90;3.90;;;;;;;;;;137683;1273;22077;-82
2024/02/20 00:56:46;;;;;;;4.90;3.80;;;;;;;;;;137688;1273;22138;-81
2024/02/20 00:59:48;;;;;;;4.20;3.40;;;;;;;;;;137673;1273;22562;-82
2024/02/20 01:02:51;;;;;;;16.00;3.60;;;;;;;;;;137678;1273;22605;-81
2024/02/20 01:05:53;;;;;;;5.00;3.30;;;;;;;;;;137690;1273;22278;-79
2024/02/20 01:08:56;;;;;;;4.90;3.40;;;;;;;;;;137687;1273;22536;-81
2024/02/20 01:11:58;;;;;;;4.60;3.40;;;;;;;;;;137755;1273;22165;-80
2024/02/20 01:15:01;;;;;;;3.90;3.30;;;;;;;;;;137735;1273;22274;-80
2024/02/20 01:18:04;;;;;;;4.70;2.90;;;;;;;;;;137775;1273;22204;-80
2024/02/20 01:21:07;;;;;;;6.90;3.30;;;;;;;;;;137744;1273;22424;-81
2024/02/20 01:24:10;;;;;;;6.60;3.30;;;;;;;;;;137691;1273;22263;-80
2024/02/20 01:27:14;;;;;;;6.50;3.80;;;;;;;;;;137671;1273;22111;-81
2024/02/20 01:30:16;;;;;;;5.60;3.40;;;;;;;;;;137682;1273;23008;-81
2024/02/20 01:33:19;;;;;;;5.30;2.90;;;;;;;;;;137706;1273;22091;-81
2024/02/20 01:36:24;;;;;;;5.00;3.40;;;;;;;;;;137743;1273;22084;-81
2024/02/20 01:39:26;;;;;;;7.10;3.20;;;;;;;;;;137756;1273;22057;-80
2024/02/20 01:42:28;;;;;;;6.30;3.30;;;;;;;;;;137732;1273;22235;-81
2024/02/20 01:45:31;;;;;;;5.60;3.90;;;;;;;;;;137705;1273;22243;-81
2024/02/20 01:48:33;;;;;;;6.70;3.60;;;;;;;;;;137723;1269;22211;-80
2024/02/20 01:51:36;;;;;;;6.70;3.70;;;;;;;;;;137718;1273;22062;-80
2024/02/20 01:54:38;;;;;;;5.00;4.30;;;;;;;;;;137694;1269;22136;-81
2024/02/20 01:57:41;;;;;;;6.70;3.40;;;;;;;;;;137691;1273;22586;-81
2024/02/20 02:00:44;;;;;;;7.10;4.10;;;;;;;;;;137719;1260;22057;-81
2024/02/20 02:03:46;;;;;;;4.40;3.30;;;;;;;;;;137748;1273;22079;-81
2024/02/20 02:06:49;;;;;;;6.10;3.30;;;;;;;;;;137707;1273;22080;-81
2024/02/20 02:09:51;;;;;;;5.40;3.10;;;;;;;;;;137705;1273;22226;-81
2024/02/20 02:12:54;;;;;;;4.30;3.70;;;;;;;;;;137755;1273;22063;-81
2024/02/20 02:15:56;;;;;;;5.80;3.70;;;;;;;;;;137711;1273;22590;-80
2024/02/20 02:18:59;;;;;;;3.90;3.50;;;;;;;;;;137696;1273;22506;-81
2024/02/20 02:22:02;;;;;;;4.00;3.50;;;;;;;;;;137695;1273;22159;-80
2024/02/20 02:25:06;;;;;;;5.00;4.00;;;;;;;;;;137681;1273;22093;-81
2024/02/20 02:28:09;;;;;;;6.00;3.80;;;;;;;;;;137688;1273;22082;-81
2024/02/20 02:31:12;;;;;;;4.80;4.10;;;;;;;;;;137695;1273;22629;-82
2024/02/20 02:34:16;;;;;;;7.50;4.50;;;;;;;;;;137734;1273;22140;-80
2024/02/20 02:37:19;;;;;;;5.20;4.00;;;;;;;;;;137732;1273;22288;-82
2024/02/20 02:40:22;;;;;;;7.20;4.90;;;;;;;;;;137738;1273;22119;-82
2024/02/20 02:43:25;;;;;;;8.70;4.40;;;;;;;;;;137703;1273;22142;-82
2024/02/20 02:46:28;;;;;;;8.30;4.30;;;;;;;;;;137673;1273;22132;-82
2024/02/20 02:49:31;;;;;;;6.00;4.80;;;;;;;;;;137678;1273;22277;-83
2024/02/20 02:52:34;;;;;;;4.60;4.00;;;;;;;;;;137600;1273;22086;-82
2024/02/20 02:55:36;;;;;;;5.00;4.40;;;;;;;;;;137633;1273;22142;-81
2024/02/20 02:58:40;;;;;;;5.40;4.70;;;;;;;;;;137634;1273;22299;-81
2024/02/20 03:01:49;;;;;;;5.70;5.20;;;;;;;;;;137687;1273;22102;-81
2024/02/20 03:04:51;;;;;;;5.30;4.50;;;;;;;;;;137669;1273;22489;-81
2024/02/20 03:07:53;;;;;;;6.50;5.60;;;;;;;;;;137692;1273;22112;-82
2024/02/20 03:10:56;;;;;;;5.60;5.00;;;;;;;;;;137681;1273;22097;-81
2024/02/20 03:13:58;;;;;;;6.60;5.40;;;;;;;;;;137650;1273;22721;-80
2024/02/20 03:17:01;;;;;;;4.70;4.20;;;;;;;;;;137693;1273;22598;-81
2024/02/20 03:20:14;;;;;;;5.50;4.50;;;;;;;;;;137649;1273;22089;-84
2024/02/20 03:23:17;;;;;;;5.70;4.90;;;;;;;;;;137639;1273;22115;-82
2024/02/20 03:26:21;;;;;;;7.40;5.50;;;;;;;;;;137653;1273;22084;-82
2024/02/20 03:29:24;;;;;;;6.40;5.00;;;;;;;;;;137672;1273;22644;-81
2024/02/20 03:32:26;;;;;;;8.10;5.10;;;;;;;;;;137661;1273;22140;-81
2024/02/20 03:35:29;;;;;;;5.80;5.00;;;;;;;;;;137682;1273;22306;-80
2024/02/20 03:38:31;;;;;;;8.20;4.90;;;;;;;;;;137656;1273;22266;-79
2024/02/20 03:41:34;;;;;;;8.60;4.40;;;;;;;;;;137640;1273;22611;-81
2024/02/20 03:44:37;;;;;;;5.10;4.40;;;;;;;;;;137613;1269;22625;-81
2024/02/20 03:47:39;;;;;;;7.70;4.90;;;;;;;;;;137612;1262;22253;-81
2024/02/20 03:50:42;;;;;;;6.50;5.80;;;;;;;;;;137664;1273;22333;-81
2024/02/20 03:53:44;;;;;;;8.30;6.70;;;;;;;;;;137681;1273;22190;-79
2024/02/20 03:56:47;;;;;;;5.30;4.80;;;;;;;;;;137687;1273;22067;-82
2024/02/20 03:59:49;;;;;;;6.70;5.10;;;;;;;;;;137692;1269;22088;-82
2024/02/20 04:02:56;;;;;;;9.10;5.80;;;;;;;;;;137675;1273;22098;-82
2024/02/20 04:05:59;;;;;;;7.50;5.00;;;;;;;;;;137677;1273;22203;-82
2024/02/20 04:09:04;;;;;;;6.00;5.40;;;;;;;;;;137713;1273;22115;-81
2024/02/20 04:12:06;;;;;;;7.00;5.30;;;;;;;;;;137659;1273;22129;-81
2024/02/20 04:15:09;;;;;;;9.20;6.60;;;;;;;;;;137710;1273;22088;-82
2024/02/20 04:18:11;;;;;;;10.60;7.20;;;;;;;;;;137673;1273;22777;-82
2024/02/20 04:21:14;;;;;;;7.40;5.80;;;;;;;;;;137674;1273;22225;-83
2024/02/20 04:24:16;;;;;;;5.80;4.80;;;;;;;;;;137656;1273;22635;-81
2024/02/20 04:27:19;;;;;;;4.80;4.30;;;;;;;;;;137680;1273;22273;-82
2024/02/20 04:30:21;;;;;;;7.00;5.30;;;;;;;;;;137612;1273;22313;-82
2024/02/20 04:33:24;;;;;;;6.90;5.40;;;;;;;;;;137643;1273;22223;-82
2024/02/20 04:36:26;;;;;;;4.60;4.10;;;;;;;;;;137638;1273;22160;-81
2024/02/20 04:39:29;;;;;;;6.20;4.50;;;;;;;;;;137637;1273;22251;-81
2024/02/20 04:42:31;;;;;;;6.50;5.10;;;;;;;;;;137589;1273;22309;-81
2024/02/20 04:45:34;;;;;;;6.40;5.40;;;;;;;;;;137617;1273;22208;-82
2024/02/20 04:48:36;;;;;;;5.40;4.80;;;;;;;;;;137684;1269;22113;-80
2024/02/20 04:51:39;;;;;;;6.60;6.00;;;;;;;;;;137510;1273;22175;-82
2024/02/20 04:54:41;;;;;;;8.00;7.20;;;;;;;;;;137652;1273;22175;-82
2024/02/20 04:57:44;;;;;;;8.70;7.70;;;;;;;;;;137558;1273;22121;-83
2024/02/20 05:00:46;;;;;;;10.60;9.70;;;;;;;;;;137633;1273;22547;-82
2024/02/20 05:03:49;;;;;;;9.60;8.50;;;;;;;;;;137619;1273;22117;-82
2024/02/20 05:06:52;;;;;;;10.40;9.40;;;;;;;;;;137614;1273;22313;-81
2024/02/20 05:09:55;;;;;;;15.70;11.00;;;;;;;;;;137653;1273;22114;-81
2024/02/20 05:12:58;;;;;;;14.10;10.80;;;;;;;;;;137630;1273;22472;-81
2024/02/20 05:16:00;;;;;;;15.50;12.00;;;;;;;;;;137602;1273;22087;-82
2024/02/20 05:19:03;;;;;;;13.30;11.90;;;;;;;;;;137624;1273;22153;-81
2024/02/20 05:22:06;;;;;;;23.60;16.20;;;;;;;;;;137549;1273;22321;-83
2024/02/20 05:25:09;;;;;;;10.90;9.80;;;;;;;;;;137619;1273;22168;-81
2024/02/20 05:28:13;;;;;;;12.20;10.50;;;;;;;;;;137496;1273;22406;-81
2024/02/20 05:31:15;;;;;;;16.30;13.20;;;;;;;;;;137662;1273;22114;-79
2024/02/20 05:34:18;;;;;;;17.50;14.30;;;;;;;;;;137576;1273;22171;-82
2024/02/20 05:37:21;;;;;;;20.90;15.50;;;;;;;;;;137651;1273;22645;-82
2024/02/20 05:40:23;;;;;;;15.40;11.10;;;;;;;;;;137659;1273;22151;-83
2024/02/20 05:43:26;;;;;;;13.20;11.10;;;;;;;;;;137617;1273;22186;-81
2024/02/20 05:46:29;;;;;;;10.00;9.00;;;;;;;;;;137600;1269;22753;-79
2024/02/20 05:49:32;;;;;;;11.20;9.40;;;;;;;;;;137638;1273;22210;-80
2024/02/20 05:52:36;;;;;;;10.80;8.80;;;;;;;;;;137533;1273;22187;-80
2024/02/20 05:55:39;;;;;;;9.90;8.80;;;;;;;;;;137601;1263;22642;-79
2024/02/20 05:58:42;;;;;;;15.50;12.10;;;;;;;;;;137578;1273;22485;-80
2024/02/20 06:01:45;;;;;;;9.00;6.70;;;;;;;;;;137612;1273;22223;-80
2024/02/20 06:04:48;;;;;;;8.60;7.80;;;;;;;;;;137566;1273;22481;-80
2024/02/20 06:07:51;;;;;;;11.50;8.30;;;;;;;;;;137553;1267;22496;-79
2024/02/20 06:10:53;;;;;;;9.60;7.70;;;;;;;;;;137564;1273;22107;-79
2024/02/20 06:13:57;;;;;;;8.70;7.90;;;;;;;;;;137411;1268;22336;-79
2024/02/20 06:17:00;;;;;;;8.90;8.00;;;;;;;;;;137512;1273;22205;-80
2024/02/20 06:20:02;;;;;;;138.20;96.40;;;;;;;;;;137540;1273;22171;-80
2024/02/20 06:23:05;;;;;;;77.10;54.40;;;;;;;;;;137572;1273;22132;-81
2024/02/20 06:26:08;;;;;;;85.20;59.00;;;;;;;;;;137629;1273;22094;-78
2024/02/20 06:29:11;;;;;;;181.60;123.00;;;;;;;;;;137576;1273;22114;-77
2024/02/20 06:32:14;;;;;;;204.50;133.40;;;;;;;;;;137576;1273;22106;-77
2024/02/20 06:35:17;;;;;;;68.10;46.20;;;;;;;;;;137585;1273;22128;-77
2024/02/20 06:38:20;;;;;;;58.50;39.60;;;;;;;;;;137560;1272;22183;-78
2024/02/20 06:41:25;;;;;;;154.00;91.00;;;;;;;;;;137573;1273;22106;-79
2024/02/20 06:44:28;;;;;;;75.70;44.30;;;;;;;;;;137512;1273;22142;-77
2024/02/20 06:47:30;;;;;;;83.50;47.20;;;;;;;;;;137519;1273;22149;-77
2024/02/20 06:50:33;;;;;;;154.30;88.80;;;;;;;;;;137446;1260;22113;-79
2024/02/20 06:53:35;;;;;;;192.50;113.40;;;;;;;;;;137588;1273;22605;-78
2024/02/20 06:56:38;;;;;;;94.70;54.50;;;;;;;;;;137621;1273;22157;-78
2024/02/20 06:59:41;;;;;;;117.50;66.90;;;;;;;;;;137633;1273;22120;-79
2024/02/20 07:02:43;;;;;;;121.10;69.00;;;;;;;;;;137643;1273;22163;-82
2024/02/20 07:05:46;;;;;;;125.80;75.40;;;;;;;;;;137710;1259;22117;-82
2024/02/20 07:08:49;;;;;;;172.50;99.50;;;;;;;;;;137661;1273;22833;-80
2024/02/20 07:11:51;;;;;;;191.30;105.70;;;;;;;;;;137603;1273;22144;-81
2024/02/20 07:14:54;;;;;;;162.30;93.50;;;;;;;;;;137637;1273;22119;-82
2024/02/20 07:17:56;;;;;;;205.30;111.70;;;;;;;;;;137614;1273;22094;-81
2024/02/20 07:21:00;;;;;;;205.10;102.40;;;;;;;;;;137659;1273;22428;-80
2024/02/20 07:24:03;;;;;;;278.10;156.20;;;;;;;;;;137562;1273;22103;-83
2024/02/20 07:27:06;;;;;;;170.90;89.80;;;;;;;;;;137632;1273;22130;-83
2024/02/20 07:30:10;;;;;;;263.00;137.40;;;;;;;;;;137613;1273;22144;-81
2024/02/20 07:33:12;;;;;;;67.00;36.40;;;;;;;;;;137584;1273;22175;-82
2024/02/20 07:36:15;;;;;;;138.50;67.00;;;;;;;;;;137610;1273;22109;-80
2024/02/20 07:39:18;;;;;;;142.90;72.00;;;;;;;;;;137633;1273;22166;-81
2024/02/20 07:42:21;;;;;;;225.20;110.60;;;;;;;;;;137620;1273;22251;-83
2024/02/20 07:45:23;;;;;;;135.60;66.10;;;;;;;;;;137380;1273;22123;-81
2024/02/20 07:48:26;;;;;;;194.20;106.40;;;;;;;;;;137602;1273;22284;-82
2024/02/20 07:51:29;;;;;;;160.30;82.70;;;;;;;;;;137581;1273;22870;-80
2024/02/20 07:54:32;;;;;;;193.50;102.20;;;;;;;;;;137614;1273;22450;-82
2024/02/20 07:57:34;;;;;;;218.50;114.10;;;;;;;;;;137621;1273;22223;-80
2024/02/20 08:00:37;;;;;;;86.60;49.10;;;;;;;;;;137602;1273;22129;-79
2024/02/20 08:03:39;;;;;;;109.00;61.20;;;;;;;;;;137592;1273;22125;-80
2024/02/20 08:06:42;;;;;;;90.30;49.10;;;;;;;;;;137617;1273;22167;-80
2024/02/20 08:09:44;;;;;;;86.70;46.20;;;;;;;;;;137612;1273;22287;-79
2024/02/20 08:12:47;;;;;;;69.50;37.50;;;;;;;;;;137585;1273;22395;-82
2024/02/20 08:15:49;;;;;;;184.20;100.90;;;;;;;;;;137472;1273;22550;-80
2024/02/20 08:18:52;;;;;;;135.10;73.20;;;;;;;;;;137624;1273;22716;-83
2024/02/20 08:21:55;;;;;;;108.90;55.00;;;;;;;;;;137624;1273;22345;-82
2024/02/20 08:24:57;;;;;;;100.70;53.60;;;;;;;;;;137589;1273;22775;-80
2024/02/20 08:28:00;;;;;;;102.20;53.00;;;;;;;;;;137624;1273;22211;-82
2024/02/20 08:31:02;;;;;;;83.70;44.10;;;;;;;;;;137574;1273;22650;-83
2024/02/20 08:34:05;;;;;;;153.90;79.70;;;;;;;;;;137653;1273;22178;-84
2024/02/20 08:37:07;;;;;;;25.90;17.60;;;;;;;;;;137587;1273;22669;-80
2024/02/20 08:40:12;;;;;;;9.30;7.00;;;;;;;;;;137614;1273;22129;-80
2024/02/20 08:43:15;;;;;;;10.80;7.40;;;;;;;;;;137587;1273;22864;-80
2024/02/20 08:46:17;;;;;;;12.30;7.90;;;;;;;;;;137631;1273;22703;-81
2024/02/20 08:49:20;;;;;;;8.90;7.70;;;;;;;;;;137619;1273;22164;-83
2024/02/20 08:52:22;;;;;;;191.00;108.70;;;;;;;;;;137577;1273;22150;-83
2024/02/20 08:55:26;;;;;;;97.60;55.80;;;;;;;;;;137646;1269;22201;-83
2024/02/20 08:58:29;;;;;;;171.20;95.20;;;;;;;;;;137612;1273;22166;-85
2024/02/20 09:01:31;;;;;;;104.50;57.90;;;;;;;;;;137618;1273;22586;-81
2024/02/20 09:04:33;;;;;;;85.30;49.20;;;;;;;;;;137630;1273;22196;-83
2024/02/20 09:07:36;;;;;;;137.00;78.20;;;;;;;;;;137448;1273;250573;-84
2024/02/20 09:10:38;;;;;;;79.90;47.30;;;;;;;;;;137600;1273;22312;-82
2024/02/20 09:13:41;;;;;;;127.90;71.20;;;;;;;;;;137569;1273;22099;-81
2024/02/20 09:16:43;;;;;;;125.00;70.10;;;;;;;;;;137653;1273;22097;-82
2024/02/20 09:19:49;;;;;;;69.40;40.50;;;;;;;;;;137590;1273;22765;-83
2024/02/20 09:22:54;;;;;;;43.50;26.40;;;;;;;;;;137606;1273;22201;-83
2024/02/20 09:25:56;;;;;;;80.40;47.80;;;;;;;;;;137599;1273;22171;-82
2024/02/20 09:28:59;;;;;;;63.80;39.60;;;;;;;;;;137604;1273;22129;-82
2024/02/20 09:32:02;;;;;;;88.10;51.40;;;;;;;;;;137627;1273;22127;-81
2024/02/20 09:35:05;;;;;;;128.20;76.20;;;;;;;;;;137570;1273;22120;-81
2024/02/20 09:38:07;;;;;;;76.90;46.90;;;;;;;;;;137624;1273;23041;-82
2024/02/20 09:41:10;;;;;;;26.80;20.00;;;;;;;;;;137596;1273;22286;-81
2024/02/20 09:44:12;;;;;;;45.40;28.20;;;;;;;;;;137629;1273;22282;-80
2024/02/20 09:47:15;;;;;;;45.00;29.40;;;;;;;;;;137595;1273;22098;-84
2024/02/20 09:50:23;;;;;;;14.80;11.10;;;;;;;;;;137627;1273;22135;-85
2024/02/20 09:53:34;;;;;;;19.50;11.40;;;;;;;;;;137655;1273;22106;-85
2024/02/20 09:56:37;;;;;;;9.90;7.10;;;;;;;;;;137687;1273;22156;-86
2024/02/20 09:59:40;;;;;;;52.00;29.20;;;;;;;;;;137676;1273;22124;-86
2024/02/20 10:02:42;;;;;;;13.70;9.00;;;;;;;;;;137682;1273;22125;-84
2024/02/20 10:05:45;;;;;;;39.40;21.60;;;;;;;;;;137661;1273;22326;-85
2024/02/20 10:08:54;;;;;;;21.00;10.40;;;;;;;;;;137684;1273;22182;-86
2024/02/20 10:11:57;;;;;;;25.10;13.70;;;;;;;;;;137649;1273;22669;-80
2024/02/20 10:15:03;;;;;;;19.30;10.50;;;;;;;;;;137716;1273;22120;-86
2024/02/20 10:18:06;;;;;;;20.00;11.20;;;;;;;;;;137627;1273;22152;-85
2024/02/20 10:21:09;;;;;;;46.30;24.20;;;;;;;;;;137634;1273;22407;-85
2024/02/20 10:24:11;;;;;;;35.50;18.40;;;;;;;;;;137633;1273;22194;-86
2024/02/20 10:27:14;;;;;;;21.20;10.50;;;;;;;;;;137643;1273;22142;-86
2024/02/20 10:30:16;;;;;;;78.00;34.40;;;;;;;;;;137598;1273;22131;-83
2024/02/20 10:33:19;;;;;;;224.50;104.60;;;;;;;;;;137625;1273;22099;-85
2024/02/20 10:36:22;;;;;;;196.80;90.20;;;;;;;;;;137625;1273;22418;-85
2024/02/20 10:39:24;;;;;;;105.70;49.70;;;;;;;;;;137681;1273;22134;-85
2024/02/20 10:42:30;;;;;;;162.70;76.20;;;;;;;;;;137640;1273;22169;-84
2024/02/20 10:45:33;;;;;;;96.90;46.50;;;;;;;;;;137647;1273;22191;-83
2024/02/20 10:48:35;;;;;;;59.00;31.20;;;;;;;;;;137646;1263;22123;-84
2024/02/20 10:51:41;;;;;;;56.60;30.20;;;;;;;;;;137663;1273;22242;-86
2024/02/20 10:54:43;;;;;;;77.90;41.80;;;;;;;;;;137583;1273;22134;-86
2024/02/20 10:57:46;;;;;;;62.70;34.90;;;;;;;;;;137593;1273;22755;-85
2024/02/20 11:00:49;;;;;;;82.40;47.60;;;;;;;;;;137652;1273;22608;-84
2024/02/20 11:03:52;;;;;;;37.40;23.40;;;;;;;;;;137611;1273;22095;-85
2024/02/20 11:06:54;;;;;;;61.70;36.60;;;;;;;;;;137665;1273;22274;-85
2024/02/20 11:09:57;;;;;;;90.80;57.50;;;;;;;;;;137486;1273;22704;-85
2024/02/20 11:13:01;;;;;;;111.40;71.20;;;;;;;;;;137658;1273;22197;-85
2024/02/20 11:16:03;;;;;;;73.80;46.20;;;;;;;;;;137650;1273;22226;-85
2024/02/20 11:19:06;;;;;;;48.60;31.50;;;;;;;;;;137631;1261;22145;-85
2024/02/20 11:22:08;;;;;;;102.20;65.60;;;;;;;;;;137625;1273;22165;-84
2024/02/20 11:25:11;;;;;;;57.20;37.40;;;;;;;;;;137650;1273;22115;-85
2024/02/20 11:28:18;;;;;;;51.20;34.00;;;;;;;;;;137659;1262;22687;-85
2024/02/20 11:31:21;;;;;;;94.90;64.00;;;;;;;;;;137627;1273;22128;-87
2024/02/20 11:34:28;;;;;;;60.10;39.10;;;;;;;;;;137699;1273;22118;-87
2024/02/20 11:37:34;;;;;;;61.80;41.00;;;;;;;;;;137609;1273;22716;-86
2024/02/20 11:40:37;;;;;;;55.10;34.80;;;;;;;;;;137585;1273;22236;-83
2024/02/20 11:43:41;;;;;;;68.00;46.20;;;;;;;;;;137615;1273;22930;-86
2024/02/20 11:46:44;;;;;;;33.20;21.40;;;;;;;;;;137612;1273;22922;-84
2024/02/20 11:49:49;;;;;;;61.90;21.80;;;;;;;;;;137563;1273;22724;-84
2024/02/20 11:52:52;;;;;;;4.60;3.40;;;;;;;;;;137625;1273;22138;-85
2024/02/20 11:55:55;;;;;;;7.00;4.70;;;;;;;;;;137655;1273;22123;-86
2024/02/20 11:58:58;;;;;;;27.90;7.90;;;;;;;;;;137678;1273;22134;-84
2024/02/20 12:02:03;;;;;;;20.30;6.10;;;;;;;;;;137609;1263;22152;-84
2024/02/20 12:05:08;;;;;;;19.60;5.40;;;;;;;;;;137612;1273;22275;-84
2024/02/20 12:08:11;;;;;;;11.10;4.30;;;;;;;;;;137586;1273;22123;-84
2024/02/20 12:11:16;;;;;;;7.30;5.20;;;;;;;;;;137595;1273;22148;-85
2024/02/20 12:14:19;;;;;;;16.90;6.90;;;;;;;;;;137569;1273;22069;-84
2024/02/20 12:17:27;;;;;;;10.40;7.10;;;;;;;;;;137619;1273;22180;-85
2024/02/20 12:20:29;;;;;;;7.50;5.70;;;;;;;;;;137622;1273;22166;-81
2024/02/20 12:23:35;;;;;;;3.10;2.80;;;;;;;;;;137578;1273;22572;-82
2024/02/20 12:26:37;;;;;;;7.30;6.20;;;;;;;;;;137650;1273;22171;-83
2024/02/20 12:29:40;;;;;;;11.60;6.60;;;;;;;;;;137610;1273;22792;-80
2024/02/20 12:32:43;;;;;;;8.50;5.70;;;;;;;;;;137584;1273;22157;-81
2024/02/20 12:35:45;;;;;;;5.30;3.80;;;;;;;;;;137616;1273;22677;-82
2024/02/20 12:38:48;;;;;;;8.70;5.00;;;;;;;;;;137634;1273;22071;-81
2024/02/20 12:41:51;;;;;;;8.00;5.80;;;;;;;;;;137595;1272;22127;-81
2024/02/20 12:44:54;;;;;;;6.70;4.80;;;;;;;;;;137609;1272;22495;-81
2024/02/20 12:47:56;;;;;;;5.50;3.90;;;;;;;;;;137619;1273;22148;-81
2024/02/20 12:50:59;;;;;;;7.20;5.20;;;;;;;;;;137593;1273;22400;-81
2024/02/20 12:54:02;;;;;;;8.00;4.80;;;;;;;;;;137484;1273;22158;-82
2024/02/20 12:57:05;;;;;;;5.30;3.00;;;;;;;;;;137589;1273;22173;-82
2024/02/20 13:00:09;;;;;;;5.60;3.30;;;;;;;;;;137653;1273;22204;-82
2024/02/20 13:03:11;;;;;;;6.80;4.40;;;;;;;;;;137632;1273;22164;-81
2024/02/20 13:06:14;;;;;;;11.80;5.00;;;;;;;;;;137634;1273;22170;-82
2024/02/20 13:09:17;;;;;;;10.10;6.00;;;;;;;;;;137605;1273;22100;-80
2024/02/20 13:12:19;;;;;;;7.90;5.30;;;;;;;;;;137605;1273;22129;-79
2024/02/20 13:15:22;;;;;;;8.40;5.10;;;;;;;;;;137571;1273;22194;-79
2024/02/20 13:18:24;;;;;;;12.40;7.40;;;;;;;;;;137567;1273;22157;-82
2024/02/20 13:21:27;;;;;;;13.40;7.00;;;;;;;;;;137559;1273;22111;-82
2024/02/20 13:24:29;;;;;;;10.70;4.50;;;;;;;;;;137506;1273;22152;-82
2024/02/20 13:27:34;;;;;;;9.20;5.40;;;;;;;;;;137526;1273;22164;-81
2024/02/20 13:30:37;;;;;;;7.00;4.20;;;;;;;;;;137485;1273;22124;-83
2024/02/20 13:33:39;;;;;;;6.50;4.30;;;;;;;;;;137536;1273;22173;-83
2024/02/20 13:36:42;;;;;;;6.60;3.80;;;;;;;;;;137557;1268;22144;-84
2024/02/20 13:39:45;;;;;;;9.20;6.90;;;;;;;;;;137522;1266;22551;-81
2024/02/20 13:42:47;;;;;;;11.90;6.40;;;;;;;;;;137527;1266;22131;-82
2024/02/20 13:45:50;;;;;;;13.70;6.00;;;;;;;;;;137560;1273;22069;-83
2024/02/20 13:48:52;;;;;;;8.80;4.30;;;;;;;;;;137552;1273;22298;-83
2024/02/20 13:51:55;;;;;;;8.50;4.40;;;;;;;;;;137565;1273;22610;-83
2024/02/20 13:54:57;;;;;;;8.00;4.60;;;;;;;;;;137584;1273;22661;-82
2024/02/20 13:58:00;;;;;;;6.00;3.90;;;;;;;;;;137556;1273;22125;-79
2024/02/20 14:01:02;;;;;;;12.70;7.80;;;;;;;;;;137571;1273;22587;-82
2024/02/20 14:04:05;;;;;;;17.30;9.30;;;;;;;;;;137569;1273;22130;-85
2024/02/20 14:07:11;;;;;;;23.00;12.90;;;;;;;;;;137601;1273;22119;-86
2024/02/20 14:10:14;;;;;;;11.20;6.90;;;;;;;;;;137569;1273;22114;-84
2024/02/20 14:13:17;;;;;;;10.30;4.50;;;;;;;;;;137607;1267;22150;-82
2024/02/20 14:16:19;;;;;;;6.40;4.40;;;;;;;;;;137607;1273;22130;-82
2024/02/20 14:19:22;;;;;;;9.00;5.80;;;;;;;;;;137591;1273;22104;-84
2024/02/20 14:22:25;;;;;;;11.00;7.10;;;;;;;;;;137625;1273;22111;-83
2024/02/20 14:25:27;;;;;;;12.90;8.00;;;;;;;;;;137602;1273;22148;-81
2024/02/20 14:28:30;;;;;;;13.10;7.90;;;;;;;;;;137574;1273;22081;-84
2024/02/20 14:31:32;;;;;;;10.20;6.80;;;;;;;;;;137567;1273;22202;-83
2024/02/20 14:34:35;;;;;;;12.60;7.50;;;;;;;;;;137548;1273;22207;-84
2024/02/20 14:37:38;;;;;;;15.20;8.50;;;;;;;;;;137562;1273;22187;-84
2024/02/20 14:40:40;;;;;;;10.60;7.40;;;;;;;;;;137583;1273;22305;-83
2024/02/20 14:43:43;;;;;;;9.00;5.50;;;;;;;;;;137531;1273;22147;-83
2024/02/20 14:46:46;;;;;;;11.90;5.30;;;;;;;;;;137583;1273;22113;-82
2024/02/20 14:49:51;;;;;;;9.70;5.70;;;;;;;;;;137561;1273;22320;-83
2024/02/20 14:52:53;;;;;;;8.30;5.50;;;;;;;;;;137552;1273;22125;-80
2024/02/20 14:55:56;;;;;;;10.00;5.90;;;;;;;;;;137555;1273;22544;-81
2024/02/20 14:58:58;;;;;;;9.30;5.40;;;;;;;;;;137576;1263;22117;-80
2024/02/20 15:02:00;;;;;;;9.30;5.40;;;;;;;;;;137562;1260;22162;-81
2024/02/20 15:05:09;;;;;;;8.50;6.30;;;;;;;;;;137608;1273;22286;-81
2024/02/20 15:08:11;;;;;;;7.80;6.40;;;;;;;;;;137603;1273;22308;-81
2024/02/20 15:11:14;;;;;;;14.20;7.80;;;;;;;;;;137570;1273;22152;-82
2024/02/20 15:14:17;;;;;;;13.40;8.60;;;;;;;;;;137597;1273;22153;-81
2024/02/20 15:17:20;;;;;;;11.10;6.90;;;;;;;;;;137613;1273;22187;-79
2024/02/20 15:20:22;;;;;;;6.50;4.60;;;;;;;;;;137640;1273;22182;-80
2024/02/20 15:23:25;;;;;;;7.70;5.00;;;;;;;;;;137639;1273;22567;-80
2024/02/20 15:26:28;;;;;;;13.60;8.00;;;;;;;;;;137622;1273;22292;-81
2024/02/20 15:29:31;;;;;;;21.00;9.00;;;;;;;;;;137649;1273;22190;-80
2024/02/20 15:32:33;;;;;;;14.40;8.50;;;;;;;;;;137623;1273;22119;-80
2024/02/20 15:35:36;;;;;;;8.90;6.70;;;;;;;;;;137578;1273;22637;-80
2024/02/20 15:38:38;;;;;;;17.10;11.50;;;;;;;;;;137649;1273;22213;-81
2024/02/20 15:41:41;;;;;;;24.40;13.20;;;;;;;;;;137632;1260;22224;-81
2024/02/20 15:44:43;;;;;;;28.40;17.90;;;;;;;;;;137631;1273;22158;-81
2024/02/20 15:47:46;;;;;;;36.00;21.60;;;;;;;;;;137632;1273;22134;-80
2024/02/20 15:50:49;;;;;;;24.80;15.80;;;;;;;;;;137602;1273;22118;-81
2024/02/20 15:53:51;;;;;;;20.20;13.30;;;;;;;;;;137634;1263;22330;-80
2024/02/20 15:56:54;;;;;;;19.20;13.90;;;;;;;;;;137646;1273;22628;-79
2024/02/20 15:59:57;;;;;;;23.80;17.80;;;;;;;;;;137644;1273;22132;-79
2024/02/20 16:03:01;;;;;;;28.50;20.10;;;;;;;;;;137601;1273;22571;-80
2024/02/20 16:06:03;;;;;;;37.50;23.90;;;;;;;;;;137601;1273;22128;-79
2024/02/20 16:09:12;;;;;;;28.50;17.90;;;;;;;;;;137613;1269;22178;-79
2024/02/20 16:12:19;;;;;;;22.60;13.80;;;;;;;;;;137691;1273;22131;-83
2024/02/20 16:15:23;;;;;;;27.90;17.00;;;;;;;;;;137733;1273;22135;-82
2024/02/20 16:18:31;;;;;;;23.20;16.30;;;;;;;;;;137742;1273;22088;-82
2024/02/20 16:21:36;;;;;;;24.70;15.00;;;;;;;;;;137779;1273;22069;-82
2024/02/20 16:24:40;;;;;;;25.70;14.10;;;;;;;;;;137767;1273;22173;-83
2024/02/20 16:27:43;;;;;;;18.40;11.80;;;;;;;;;;137673;1273;22286;-82
2024/02/20 16:30:45;;;;;;;18.20;11.90;;;;;;;;;;137667;1273;22165;-82
2024/02/20 16:33:48;;;;;;;20.90;13.80;;;;;;;;;;137671;1262;22207;-82
2024/02/20 16:36:58;;;;;;;20.90;15.50;;;;;;;;;;137622;1273;22091;-83
2024/02/20 16:40:01;;;;;;;28.50;18.70;;;;;;;;;;137683;1273;22123;-81
2024/02/20 16:43:04;;;;;;;21.40;13.50;;;;;;;;;;137624;1273;22181;-83
2024/02/20 16:46:07;;;;;;;30.10;19.70;;;;;;;;;;137666;1273;22177;-82
2024/02/20 16:49:10;;;;;;;23.80;15.90;;;;;;;;;;137729;1273;22156;-82
2024/02/20 16:52:15;;;;;;;18.50;11.90;;;;;;;;;;137691;1269;22117;-80
2024/02/20 16:55:18;;;;;;;17.70;11.40;;;;;;;;;;137662;1273;22366;-80
2024/02/20 16:58:20;;;;;;;16.90;10.20;;;;;;;;;;137623;1273;22185;-82
2024/02/20 17:01:23;;;;;;;18.30;10.90;;;;;;;;;;137645;1273;22119;-82
2024/02/20 17:04:27;;;;;;;20.10;12.30;;;;;;;;;;137618;1273;22566;-84
2024/02/20 17:07:30;;;;;;;24.10;13.40;;;;;;;;;;137651;1273;22147;-83
2024/02/20 17:10:33;;;;;;;24.90;14.20;;;;;;;;;;137646;1273;22267;-84
2024/02/20 17:13:38;;;;;;;31.60;16.70;;;;;;;;;;137642;1273;22194;-83
2024/02/20 17:16:43;;;;;;;31.70;16.10;;;;;;;;;;137600;1273;22156;-82
2024/02/20 17:19:45;;;;;;;32.70;17.20;;;;;;;;;;137642;1273;22066;-84
2024/02/20 17:22:49;;;;;;;31.80;17.80;;;;;;;;;;137674;1273;22160;-84
2024/02/20 17:25:56;;;;;;;27.50;16.00;;;;;;;;;;137667;1273;22134;-83
2024/02/20 17:28:58;;;;;;;28.10;14.40;;;;;;;;;;137688;1273;22309;-82
2024/02/20 17:32:00;;;;;;;24.20;14.00;;;;;;;;;;137648;1273;22134;-83
2024/02/20 17:35:03;;;;;;;25.40;14.50;;;;;;;;;;137648;1273;22171;-82
2024/02/20 17:38:06;;;;;;;21.00;11.90;;;;;;;;;;137635;1269;22101;-83
2024/02/20 17:41:09;;;;;;;23.20;13.40;;;;;;;;;;137651;1273;22232;-82